sensor_id;sensor_type;location;lat;lon;timestamp;pressure;altitude;pressure_sealevel;temperature;humidity
50356;BME280;36264;51.296;-0.602;2023-02-13T00:00:41;103335.63;;;9.30;100.00
50356;BME280;36264;51.296;-0.602;2023-02-13T00:03:06;103339.88;;;9.28;100.00
50356;BME280;36264;51.296;-0.602;2023-02-13T00:05:32;103338.19;;;9.28;100.00
50356;BME280;36264;51.296;-0.602;2023-02-13T00:07:57;103329.47;;;9.24;100.00
50356;BME280;36264;51.296;-0.602;2023-02-13T00:10:23;103331.22;;;9.25;100.00
50356;BME280;36264;51.296;-0.602;2023-02-13T00:12:48;103337.25;;;9.24;100.00
50356;BME280;36264;51.296;-0.602;2023-02-13T00:15:13;103328.63;;;9.25;100.00
50356;BME280;36264;51.296;-0.602;2023-02-13T00:17:39;103326.88;;;9.24;100.00
50356;BME280;36264;51.296;-0.602;2023-02-13T00:20:05;103321.66;;;9.21;100.00
50356;BME280;36264;51.296;-0.602;2023-02-13T00:22:35;103326.84;;;9.21;100.00
50356;BME280;36264;51.296;-0.602;2023-02-13T00:25:01;103324.19;;;9.17;100.00
50356;BME280;36264;51.296;-0.602;2023-02-13T00:27:27;103319.00;;;9.17;100.00
50356;BME280;36264;51.296;-0.602;2023-02-13T00:29:52;103323.28;;;9.16;100.00
50356;BME280;36264;51.296;-0.602;2023-02-13T00:32:18;103315.50;;;9.16;100.00
50356;BME280;36264;51.296;-0.602;2023-02-13T00:34:43;103314.56;;;9.11;100.00
50356;BME280;36264;51.296;-0.602;2023-02-13T00:37:08;103312.78;;;9.09;100.00
50356;BME280;36264;51.296;-0.602;2023-02-13T00:39:34;103317.13;;;9.10;100.00
50356;BME280;36264;51.296;-0.602;2023-02-13T00:41:59;103311.97;;;9.11;100.00
50356;BME280;36264;51.296;-0.602;2023-02-13T00:44:24;103311.16;;;9.12;100.00
50356;BME280;36264;51.296;-0.602;2023-02-13T00:46:50;103311.16;;;9.12;100.00
50356;BME280;36264;51.296;-0.602;2023-02-13T00:49:15;103305.97;;;9.14;100.00
50356;BME280;36264;51.296;-0.602;2023-02-13T00:51:40;103304.25;;;9.14;100.00
50356;BME280;36264;51.296;-0.602;2023-02-13T00:54:06;103302.47;;;9.12;100.00
50356;BME280;36264;51.296;-0.602;2023-02-13T00:56:31;103310.22;;;9.10;100.00
50356;BME280;36264;51.296;-0.602;2023-02-13T00:58:56;103310.19;;;9.09;100.00
50356;BME280;36264;51.296;-0.602;2023-02-13T01:01:22;103308.47;;;9.07;100.00
50356;BME280;36264;51.296;-0.602;2023-02-13T01:03:47;103305.00;;;9.09;100.00
50356;BME280;36264;51.296;-0.602;2023-02-13T01:06:12;103307.63;;;9.10;100.00
50356;BME280;36264;51.296;-0.602;2023-02-13T01:08:38;103307.63;;;9.10;100.00
50356;BME280;36264;51.296;-0.602;2023-02-13T01:11:05;103302.44;;;9.10;100.00
50356;BME280;36264;51.296;-0.602;2023-02-13T01:13:30;103304.09;;;9.05;100.00
50356;BME280;36264;51.296;-0.602;2023-02-13T01:15:56;103305.81;;;9.03;100.00
50356;BME280;36264;51.296;-0.602;2023-02-13T01:18:21;103300.66;;;9.04;100.00
50356;BME280;36264;51.296;-0.602;2023-02-13T01:21:01;103305.06;;;9.12;100.00
50356;BME280;36264;51.296;-0.602;2023-02-13T01:23:32;103292.06;;;9.10;100.00
50356;BME280;36264;51.296;-0.602;2023-02-13T01:25:58;103292.03;;;9.07;100.00
50356;BME280;36264;51.296;-0.602;2023-02-13T01:28:23;103293.72;;;9.05;100.00
50356;BME280;36264;51.296;-0.602;2023-02-13T01:30:53;103297.25;;;9.10;100.00
50356;BME280;36264;51.296;-0.602;2023-02-13T01:33:18;103292.75;;;8.98;100.00
50356;BME280;36264;51.296;-0.602;2023-02-13T01:35:44;103293.63;;;8.99;100.00
50356;BME280;36264;51.296;-0.602;2023-02-13T01:38:09;103290.97;;;8.94;100.00
50356;BME280;36264;51.296;-0.602;2023-02-13T01:40:34;103304.81;;;8.95;100.00
50356;BME280;36264;51.296;-0.602;2023-02-13T01:43:00;103304.81;;;8.95;100.00
50356;BME280;36264;51.296;-0.602;2023-02-13T01:45:29;103304.81;;;8.95;100.00
50356;BME280;36264;51.296;-0.602;2023-02-13T01:55:24;103300.41;;;8.91;100.00
50356;BME280;36264;51.296;-0.602;2023-02-13T01:57:59;103302.16;;;8.92;100.00
50356;BME280;36264;51.296;-0.602;2023-02-13T02:00:26;103296.91;;;8.87;100.00
50356;BME280;36264;51.296;-0.602;2023-02-13T02:02:57;103302.13;;;8.88;100.00
50356;BME280;36264;51.296;-0.602;2023-02-13T02:05:26;103301.22;;;8.88;100.00
50356;BME280;36264;51.296;-0.602;2023-02-13T02:07:54;103300.34;;;8.87;100.00
50356;BME280;36264;51.296;-0.602;2023-02-13T02:10:22;103305.44;;;8.81;100.00
50356;BME280;36264;51.296;-0.602;2023-02-13T02:15:22;103301.13;;;8.82;100.00
50356;BME280;36264;51.296;-0.602;2023-02-13T02:17:47;103303.75;;;8.83;100.00
50356;BME280;36264;51.296;-0.602;2023-02-13T02:23:09;103289.13;;;8.87;100.00
50356;BME280;36264;51.296;-0.602;2023-02-13T02:43:32;103287.28;;;8.81;100.00
50356;BME280;36264;51.296;-0.602;2023-02-13T02:48:55;103291.56;;;8.78;100.00
50356;BME280;36264;51.296;-0.602;2023-02-13T02:57:12;103288.16;;;8.80;100.00
50356;BME280;36264;51.296;-0.602;2023-02-13T02:59:40;103282.09;;;8.81;100.00
50356;BME280;36264;51.296;-0.602;2023-02-13T03:02:27;103286.44;;;8.82;100.00
50356;BME280;36264;51.296;-0.602;2023-02-13T03:05:23;103283.88;;;8.82;100.00
50356;BME280;36264;51.296;-0.602;2023-02-13T03:08:07;103267.38;;;8.77;100.00
50356;BME280;36264;51.296;-0.602;2023-02-13T03:10:35;103276.03;;;8.79;100.00
50356;BME280;36264;51.296;-0.602;2023-02-13T03:13:38;103268.22;;;8.78;100.00
50356;BME280;36264;51.296;-0.602;2023-02-13T03:16:11;103272.50;;;8.74;100.00
50356;BME280;36264;51.296;-0.602;2023-02-13T03:18:58;103269.81;;;8.68;100.00
50356;BME280;36264;51.296;-0.602;2023-02-13T03:22:04;103265.50;;;8.70;100.00
50356;BME280;36264;51.296;-0.602;2023-02-13T03:27:37;103271.53;;;8.69;100.00
50356;BME280;36264;51.296;-0.602;2023-02-13T03:41:29;103255.94;;;8.66;100.00
50356;BME280;36264;51.296;-0.602;2023-02-13T03:46:38;103258.63;;;8.72;100.00
50356;BME280;36264;51.296;-0.602;2023-02-13T03:49:06;103256.00;;;8.70;100.00
50356;BME280;36264;51.296;-0.602;2023-02-13T03:54:24;103255.25;;;8.76;100.00
50356;BME280;36264;51.296;-0.602;2023-02-13T03:57:14;103256.06;;;8.74;100.00
50356;BME280;36264;51.296;-0.602;2023-02-13T04:00:01;103262.06;;;8.69;100.00
50356;BME280;36264;51.296;-0.602;2023-02-13T04:02:29;103259.50;;;8.71;100.00
50356;BME280;36264;51.296;-0.602;2023-02-13T04:05:07;103260.41;;;8.75;100.00
50356;BME280;36264;51.296;-0.602;2023-02-13T04:07:35;103266.34;;;8.69;100.00
50356;BME280;36264;51.296;-0.602;2023-02-13T04:10:04;103264.69;;;8.73;100.00
50356;BME280;36264;51.296;-0.602;2023-02-13T04:12:56;103263.78;;;8.70;100.00
50356;BME280;36264;51.296;-0.602;2023-02-13T04:15:33;103268.88;;;8.66;100.00
50356;BME280;36264;51.296;-0.602;2023-02-13T04:18:21;103268.88;;;8.66;100.00
50356;BME280;36264;51.296;-0.602;2023-02-13T04:20:48;103254.16;;;8.62;100.00
50356;BME280;36264;51.296;-0.602;2023-02-13T04:23:14;103248.13;;;8.63;100.00
50356;BME280;36264;51.296;-0.602;2023-02-13T04:25:43;103246.38;;;8.62;100.00
50356;BME280;36264;51.296;-0.602;2023-02-13T04:28:09;103249.66;;;8.53;100.00
50356;BME280;36264;51.296;-0.602;2023-02-13T04:30:35;103237.59;;;8.54;100.00
50356;BME280;36264;51.296;-0.602;2023-02-13T04:33:00;103246.22;;;8.54;100.00
50356;BME280;36264;51.296;-0.602;2023-02-13T04:35:25;103247.06;;;8.53;100.00
50356;BME280;36264;51.296;-0.602;2023-02-13T04:37:51;103244.50;;;8.55;100.00
50356;BME280;36264;51.296;-0.602;2023-02-13T04:40:16;103249.75;;;8.58;100.00
50356;BME280;36264;51.296;-0.602;2023-02-13T04:42:42;103241.13;;;8.59;100.00
50356;BME280;36264;51.296;-0.602;2023-02-13T04:45:07;103239.38;;;8.58;100.00
50356;BME280;36264;51.296;-0.602;2023-02-13T04:47:33;103236.72;;;8.53;100.00
50356;BME280;36264;51.296;-0.602;2023-02-13T04:49:58;103235.72;;;8.46;100.00
50356;BME280;36264;51.296;-0.602;2023-02-13T04:52:23;103231.31;;;8.41;100.00
50356;BME280;36264;51.296;-0.602;2023-02-13T04:54:49;103230.41;;;8.40;100.00
50356;BME280;36264;51.296;-0.602;2023-02-13T04:57:14;103237.34;;;8.41;100.00
50356;BME280;36264;51.296;-0.602;2023-02-13T04:59:40;103237.25;;;8.37;100.00
50356;BME280;36264;51.296;-0.602;2023-02-13T05:02:05;103232.94;;;8.37;100.00
50356;BME280;36264;51.296;-0.602;2023-02-13T05:04:31;103240.78;;;8.40;100.00
50356;BME280;36264;51.296;-0.602;2023-02-13T05:06:56;103236.44;;;8.38;100.00
50356;BME280;36264;51.296;-0.602;2023-02-13T05:09:22;103233.84;;;8.38;100.00
50356;BME280;36264;51.296;-0.602;2023-02-13T05:11:51;103231.28;;;8.39;100.00
50356;BME280;36264;51.296;-0.602;2023-02-13T05:14:16;103237.25;;;8.37;100.00
50356;BME280;36264;51.296;-0.602;2023-02-13T05:16:42;103234.66;;;8.37;100.00
50356;BME280;36264;51.296;-0.602;2023-02-13T05:19:07;103235.53;;;8.37;100.00
50356;BME280;36264;51.296;-0.602;2023-02-13T05:21:32;103239.03;;;8.39;100.00
50356;BME280;36264;51.296;-0.602;2023-02-13T05:24:16;103240.75;;;8.39;100.00
50356;BME280;36264;51.296;-0.602;2023-02-13T05:26:41;103239.09;;;8.42;100.00
50356;BME280;36264;51.296;-0.602;2023-02-13T05:29:09;103237.34;;;8.41;100.00
50356;BME280;36264;51.296;-0.602;2023-02-13T05:31:51;103236.59;;;8.45;100.00
50356;BME280;36264;51.296;-0.602;2023-02-13T05:34:18;103235.56;;;8.39;100.00
50356;BME280;36264;51.296;-0.602;2023-02-13T05:36:43;103239.06;;;8.41;100.00
50356;BME280;36264;51.296;-0.602;2023-02-13T05:39:09;103231.25;;;8.38;100.00
50356;BME280;36264;51.296;-0.602;2023-02-13T05:41:34;103243.31;;;8.37;100.00
50356;BME280;36264;51.296;-0.602;2023-02-13T05:43:59;103239.88;;;8.38;100.00
50356;BME280;36264;51.296;-0.602;2023-02-13T05:46:25;103235.47;;;8.34;100.00
50356;BME280;36264;51.296;-0.602;2023-02-13T05:48:51;103234.66;;;8.37;100.00
50356;BME280;36264;51.296;-0.602;2023-02-13T05:51:17;103239.00;;;8.38;100.00
50356;BME280;36264;51.296;-0.602;2023-02-13T05:53:43;103244.16;;;8.36;100.00
50356;BME280;36264;51.296;-0.602;2023-02-13T05:56:08;103240.66;;;8.34;100.00
50356;BME280;36264;51.296;-0.602;2023-02-13T05:58:34;103240.66;;;8.34;100.00
50356;BME280;36264;51.296;-0.602;2023-02-13T06:00:59;103237.22;;;8.35;100.00
50356;BME280;36264;51.296;-0.602;2023-02-13T06:03:26;103232.09;;;8.37;100.00
50356;BME280;36264;51.296;-0.602;2023-02-13T06:05:53;103227.69;;;8.34;100.00
50356;BME280;36264;51.296;-0.602;2023-02-13T06:08:19;103223.41;;;8.33;100.00
50356;BME280;36264;51.296;-0.602;2023-02-13T06:10:46;103216.56;;;8.38;100.00
50356;BME280;36264;51.296;-0.602;2023-02-13T06:13:11;103220.72;;;8.28;100.00
50356;BME280;36264;51.296;-0.602;2023-02-13T06:15:36;103222.38;;;8.25;100.00
50356;BME280;36264;51.296;-0.602;2023-02-13T06:18:02;103215.41;;;8.21;100.00
50356;BME280;36264;51.296;-0.602;2023-02-13T06:20:27;103212.72;;;8.16;100.00
50356;BME280;36264;51.296;-0.602;2023-02-13T06:22:53;103208.28;;;8.10;100.00
50356;BME280;36264;51.296;-0.602;2023-02-13T06:25:19;103210.84;;;8.07;100.00
50356;BME280;36264;51.296;-0.602;2023-02-13T06:27:44;103216.84;;;8.06;100.00
50356;BME280;36264;51.296;-0.602;2023-02-13T06:30:10;103221.97;;;8.03;100.00
50356;BME280;36264;51.296;-0.602;2023-02-13T06:32:36;103209.00;;;8.02;100.00
50356;BME280;36264;51.296;-0.602;2023-02-13T06:35:01;103213.34;;;8.03;100.00
50356;BME280;36264;51.296;-0.602;2023-02-13T06:37:27;103209.78;;;7.97;100.00
50356;BME280;36264;51.296;-0.602;2023-02-13T06:39:52;103216.59;;;7.94;100.00
50356;BME280;36264;51.296;-0.602;2023-02-13T06:42:17;103224.34;;;7.92;100.00
50356;BME280;36264;51.296;-0.602;2023-02-13T06:44:43;103220.00;;;7.91;100.00
50356;BME280;36264;51.296;-0.602;2023-02-13T06:47:09;103219.91;;;7.85;100.00
50356;BME280;36264;51.296;-0.602;2023-02-13T06:49:34;103220.66;;;7.81;100.00
50356;BME280;36264;51.296;-0.602;2023-02-13T06:52:00;103224.06;;;7.78;100.00
50356;BME280;36264;51.296;-0.602;2023-02-13T06:54:25;103229.25;;;7.80;100.00
50356;BME280;36264;51.296;-0.602;2023-02-13T06:56:50;103231.69;;;7.72;100.00
50356;BME280;36264;51.296;-0.602;2023-02-13T06:59:15;103232.56;;;7.71;100.00
50356;BME280;36264;51.296;-0.602;2023-02-13T07:01:41;103243.72;;;7.70;100.00
50356;BME280;36264;51.296;-0.602;2023-02-13T07:04:06;103238.44;;;7.64;100.00
50356;BME280;36264;51.296;-0.602;2023-02-13T07:06:32;103236.56;;;7.57;100.00
50356;BME280;36264;51.296;-0.602;2023-02-13T07:08:57;103241.56;;;7.49;100.00
50356;BME280;36264;51.296;-0.602;2023-02-13T07:11:23;103243.09;;;7.39;100.00
50356;BME280;36264;51.296;-0.602;2023-02-13T07:13:49;103247.13;;;7.28;100.00
50356;BME280;36264;51.296;-0.602;2023-02-13T07:16:15;103239.06;;;7.14;100.00
50356;BME280;36264;51.296;-0.602;2023-02-13T07:18:40;103244.84;;;7.04;100.00
50356;BME280;36264;51.296;-0.602;2023-02-13T07:21:06;103243.78;;;6.96;100.00
50356;BME280;36264;51.296;-0.602;2023-02-13T07:23:31;103249.56;;;6.85;100.00
50356;BME280;36264;51.296;-0.602;2023-02-13T07:26:00;103246.84;;;6.79;100.00
50356;BME280;36264;51.296;-0.602;2023-02-13T07:28:29;103244.91;;;6.72;100.00
50356;BME280;36264;51.296;-0.602;2023-02-13T07:30:55;103246.53;;;6.67;100.00
50356;BME280;36264;51.296;-0.602;2023-02-13T07:33:21;103238.69;;;6.64;100.00
50356;BME280;36264;51.296;-0.602;2023-02-13T07:35:48;103251.72;;;6.68;100.00
50356;BME280;36264;51.296;-0.602;2023-02-13T07:38:14;103245.66;;;6.66;100.00
50356;BME280;36264;51.296;-0.602;2023-02-13T07:40:39;103242.06;;;6.61;100.00
50356;BME280;36264;51.296;-0.602;2023-02-13T07:43:05;103245.34;;;6.54;100.00
50356;BME280;36264;51.296;-0.602;2023-02-13T07:45:30;103237.38;;;6.46;100.00
50356;BME280;36264;51.296;-0.602;2023-02-13T07:47:56;103241.81;;;6.50;100.00
50356;BME280;36264;51.296;-0.602;2023-02-13T07:50:21;103241.66;;;6.44;100.00
50356;BME280;36264;51.296;-0.602;2023-02-13T07:52:57;103239.09;;;6.46;100.00
50356;BME280;36264;51.296;-0.602;2023-02-13T07:55:23;103238.09;;;6.41;100.00
50356;BME280;36264;51.296;-0.602;2023-02-13T07:57:49;103240.66;;;6.41;100.00
50356;BME280;36264;51.296;-0.602;2023-02-13T08:00:15;103245.88;;;6.42;100.00
50356;BME280;36264;51.296;-0.602;2023-02-13T08:02:41;103234.69;;;6.42;100.00
50356;BME280;36264;51.296;-0.602;2023-02-13T08:05:07;103229.69;;;6.48;100.00
50356;BME280;36264;51.296;-0.602;2023-02-13T08:07:34;103229.84;;;6.54;100.00
50356;BME280;36264;51.296;-0.602;2023-02-13T08:09:59;103232.38;;;6.52;100.00
50356;BME280;36264;51.296;-0.602;2023-02-13T08:12:43;103239.31;;;6.53;100.00
50356;BME280;36264;51.296;-0.602;2023-02-13T08:15:11;103235.16;;;6.60;100.00
50356;BME280;36264;51.296;-0.602;2023-02-13T08:17:36;103238.56;;;6.59;100.00
50356;BME280;36264;51.296;-0.602;2023-02-13T08:20:03;103236.94;;;6.63;100.00
50356;BME280;36264;51.296;-0.602;2023-02-13T08:22:28;103221.31;;;6.57;100.00
50356;BME280;36264;51.296;-0.602;2023-02-13T08:24:54;103236.31;;;6.71;100.00
50356;BME280;36264;51.296;-0.602;2023-02-13T08:27:19;103236.38;;;6.75;100.00
50356;BME280;36264;51.296;-0.602;2023-02-13T08:29:44;103247.69;;;6.80;100.00
50356;BME280;36264;51.296;-0.602;2023-02-13T08:32:10;103250.31;;;6.81;100.00
50356;BME280;36264;51.296;-0.602;2023-02-13T08:34:35;103248.72;;;6.86;100.00
50356;BME280;36264;51.296;-0.602;2023-02-13T08:37:01;103248.88;;;6.93;100.00
50356;BME280;36264;51.296;-0.602;2023-02-13T08:39:27;103243.75;;;6.94;100.00
50356;BME280;36264;51.296;-0.602;2023-02-13T08:41:53;103247.28;;;6.98;100.00
50356;BME280;36264;51.296;-0.602;2023-02-13T08:44:18;103236.97;;;6.99;100.00
50356;BME280;36264;51.296;-0.602;2023-02-13T08:46:43;103240.41;;;6.98;100.00
50356;BME280;36264;51.296;-0.602;2023-02-13T08:49:09;103230.19;;;7.03;100.00
50356;BME280;36264;51.296;-0.602;2023-02-13T08:51:34;103232.81;;;7.04;100.00
50356;BME280;36264;51.296;-0.602;2023-02-13T08:53:59;103233.66;;;7.05;100.00
50356;BME280;36264;51.296;-0.602;2023-02-13T08:56:25;103230.97;;;7.00;100.00
50356;BME280;36264;51.296;-0.602;2023-02-13T08:58:50;103235.44;;;7.06;100.00
50356;BME280;36264;51.296;-0.602;2023-02-13T09:01:16;103226.84;;;7.08;100.00
50356;BME280;36264;51.296;-0.602;2023-02-13T09:03:41;103226.13;;;7.14;100.00
50356;BME280;36264;51.296;-0.602;2023-02-13T09:06:07;103217.47;;;7.12;100.00
50356;BME280;36264;51.296;-0.602;2023-02-13T09:08:34;103224.50;;;7.18;100.00
50356;BME280;36264;51.296;-0.602;2023-02-13T09:11:01;103221.16;;;7.22;100.00
50356;BME280;36264;51.296;-0.602;2023-02-13T09:13:28;103228.16;;;7.28;100.00
50356;BME280;36264;51.296;-0.602;2023-02-13T09:15:57;103221.41;;;7.33;100.00
50356;BME280;36264;51.296;-0.602;2023-02-13T09:18:24;103220.50;;;7.32;100.00
50356;BME280;36264;51.296;-0.602;2023-02-13T09:20:49;103221.44;;;7.36;100.00
50356;BME280;36264;51.296;-0.602;2023-02-13T09:23:14;103211.88;;;7.32;100.00
50356;BME280;36264;51.296;-0.602;2023-02-13T09:25:40;103217.28;;;7.42;100.00
50356;BME280;36264;51.296;-0.602;2023-02-13T09:28:05;103203.34;;;7.36;100.00
50356;BME280;36264;51.296;-0.602;2023-02-13T09:30:30;103218.31;;;7.51;100.00
50356;BME280;36264;51.296;-0.602;2023-02-13T09:32:56;103216.69;;;7.56;100.00
50356;BME280;36264;51.296;-0.602;2023-02-13T09:35:22;103212.56;;;7.64;100.00
50356;BME280;36264;51.296;-0.602;2023-02-13T09:37:47;103207.41;;;7.66;100.00
50356;BME280;36264;51.296;-0.602;2023-02-13T09:40:36;103211.13;;;7.78;100.00
50356;BME280;36264;51.296;-0.602;2023-02-13T09:43:07;103212.09;;;7.84;100.00
50356;BME280;36264;51.296;-0.602;2023-02-13T09:45:37;103205.38;;;7.92;100.00
50356;BME280;36264;51.296;-0.602;2023-02-13T09:48:04;103204.66;;;8.01;100.00
50356;BME280;36264;51.296;-0.602;2023-02-13T09:50:30;103209.91;;;8.05;100.00
50356;BME280;36264;51.296;-0.602;2023-02-13T09:52:59;103205.66;;;8.09;100.00
50356;BME280;36264;51.296;-0.602;2023-02-13T09:58:08;103199.75;;;8.14;100.00
50356;BME280;36264;51.296;-0.602;2023-02-13T10:00:47;103201.59;;;8.20;100.00
50356;BME280;36264;51.296;-0.602;2023-02-13T10:03:27;103210.38;;;8.30;100.00
50356;BME280;36264;51.296;-0.602;2023-02-13T10:06:29;103208.81;;;8.40;100.00
50356;BME280;36264;51.296;-0.602;2023-02-13T10:09:04;103216.72;;;8.44;100.00
50356;BME280;36264;51.296;-0.602;2023-02-13T10:17:03;103205.56;;;8.50;100.00
50356;BME280;36264;51.296;-0.602;2023-02-13T10:20:04;103203.16;;;8.61;100.00
50356;BME280;36264;51.296;-0.602;2023-02-13T10:22:35;103209.28;;;8.66;100.00
50356;BME280;36264;51.296;-0.602;2023-02-13T10:25:07;103207.72;;;8.74;100.00
50356;BME280;36264;51.296;-0.602;2023-02-13T10:27:43;103217.31;;;8.81;100.00
50356;BME280;36264;51.296;-0.602;2023-02-13T10:30:14;103214.78;;;8.84;100.00
50356;BME280;36264;51.296;-0.602;2023-02-13T10:32:48;103218.34;;;8.93;100.00
50356;BME280;36264;51.296;-0.602;2023-02-13T10:35:23;103220.22;;;9.00;100.00
50356;BME280;36264;51.296;-0.602;2023-02-13T10:37:53;103218.50;;;9.02;100.00
50356;BME280;36264;51.296;-0.602;2023-02-13T10:40:20;103218.56;;;9.06;100.00
50356;BME280;36264;51.296;-0.602;2023-02-13T10:42:46;103213.47;;;9.13;100.00
50356;BME280;36264;51.296;-0.602;2023-02-13T10:45:44;103207.56;;;9.23;100.00
50356;BME280;36264;51.296;-0.602;2023-02-13T10:59:00;103200.25;;;9.57;100.00
50356;BME280;36264;51.296;-0.602;2023-02-13T11:01:49;103202.94;;;9.65;100.00
50356;BME280;36264;51.296;-0.602;2023-02-13T11:04:18;103197.81;;;9.69;100.00
50356;BME280;36264;51.296;-0.602;2023-02-13T11:07:00;103190.09;;;9.75;100.00
50356;BME280;36264;51.296;-0.602;2023-02-13T11:09:27;103193.56;;;9.76;100.00
50356;BME280;36264;51.296;-0.602;2023-02-13T11:11:54;103193.56;;;9.77;100.00
50356;BME280;36264;51.296;-0.602;2023-02-13T11:14:26;103197.16;;;9.89;100.00
50356;BME280;36264;51.296;-0.602;2023-02-13T11:16:58;103197.19;;;9.92;100.00
50356;BME280;36264;51.296;-0.602;2023-02-13T11:19:50;103192.94;;;10.00;100.00
50356;BME280;36264;51.296;-0.602;2023-02-13T11:24:57;103170.47;;;10.02;100.00
50356;BME280;36264;51.296;-0.602;2023-02-13T11:27:28;103176.66;;;10.13;100.00
50356;BME280;36264;51.296;-0.602;2023-02-13T11:29:55;103169.78;;;10.19;100.00
50356;BME280;36264;51.296;-0.602;2023-02-13T11:32:23;103166.31;;;10.21;100.00
50356;BME280;36264;51.296;-0.602;2023-02-13T11:34:49;103170.72;;;10.28;100.00
50356;BME280;36264;51.296;-0.602;2023-02-13T11:37:26;103172.56;;;10.39;100.00
50356;BME280;36264;51.296;-0.602;2023-02-13T11:39:55;103167.38;;;10.39;100.00
50356;BME280;36264;51.296;-0.602;2023-02-13T11:42:35;103174.34;;;10.44;100.00
50356;BME280;36264;51.296;-0.602;2023-02-13T11:45:06;103166.59;;;10.49;100.00
50356;BME280;36264;51.296;-0.602;2023-02-13T11:47:43;103155.34;;;10.48;100.00
50356;BME280;36264;51.296;-0.602;2023-02-13T11:50:33;103159.72;;;10.57;100.00
50356;BME280;36264;51.296;-0.602;2023-02-13T11:53:06;103146.75;;;10.60;100.00
50356;BME280;36264;51.296;-0.602;2023-02-13T11:55:38;103144.22;;;10.66;100.00
50356;BME280;36264;51.296;-0.602;2023-02-13T11:58:23;103134.78;;;10.81;100.00
50356;BME280;36264;51.296;-0.602;2023-02-13T12:00:48;103129.56;;;10.78;100.00
50356;BME280;36264;51.296;-0.602;2023-02-13T12:08:34;103126.19;;;11.00;100.00
50356;BME280;36264;51.296;-0.602;2023-02-13T12:11:02;103122.75;;;11.01;100.00
50356;BME280;36264;51.296;-0.602;2023-02-13T12:13:36;103121.06;;;11.10;100.00
50356;BME280;36264;51.296;-0.602;2023-02-13T12:16:09;103126.28;;;11.16;100.00
50356;BME280;36264;51.296;-0.602;2023-02-13T12:18:44;103119.38;;;11.22;100.00
50356;BME280;36264;51.296;-0.602;2023-02-13T12:23:56;103112.50;;;11.38;100.00
50356;BME280;36264;51.296;-0.602;2023-02-13T12:40:05;103105.63;;;11.65;100.00
50356;BME280;36264;51.296;-0.602;2023-02-13T12:42:46;103103.91;;;11.67;100.00
50356;BME280;36264;51.296;-0.602;2023-02-13T12:46:03;103110.00;;;11.71;100.00
50356;BME280;36264;51.296;-0.602;2023-02-13T12:48:13;103092.66;;;11.79;100.00
50356;BME280;36264;51.296;-0.602;2023-02-13T13:15:08;103064.00;;;11.74;100.00
50356;BME280;36264;51.296;-0.602;2023-02-13T13:22:53;103052.72;;;11.72;100.00
50356;BME280;36264;51.296;-0.602;2023-02-13T13:28:21;103045.78;;;11.71;100.00
50356;BME280;36264;51.296;-0.602;2023-02-13T13:30:48;103037.97;;;11.79;100.00
50356;BME280;36264;51.296;-0.602;2023-02-13T13:33:22;103032.81;;;11.94;100.00
50356;BME280;36264;51.296;-0.602;2023-02-13T13:38:28;103030.16;;;12.18;100.00
50356;BME280;36264;51.296;-0.602;2023-02-13T13:40:59;103036.22;;;12.30;100.00
50356;BME280;36264;51.296;-0.602;2023-02-13T13:46:43;103029.22;;;12.63;100.00
50356;BME280;36264;51.296;-0.602;2023-02-13T13:51:49;103024.81;;;12.72;100.00
50356;BME280;36264;51.296;-0.602;2023-02-13T14:07:34;103019.34;;;13.26;100.00
50356;BME280;36264;51.296;-0.602;2023-02-13T14:10:00;103005.44;;;13.25;100.00
50356;BME280;36264;51.296;-0.602;2023-02-13T14:14:55;103009.78;;;13.31;100.00
50356;BME280;36264;51.296;-0.602;2023-02-13T14:23:16;103000.97;;;13.52;100.00
50356;BME280;36264;51.296;-0.602;2023-02-13T14:25:43;103000.94;;;13.56;100.00
50356;BME280;36264;51.296;-0.602;2023-02-13T14:28:24;102993.91;;;13.62;100.00
50356;BME280;36264;51.296;-0.602;2023-02-13T14:31:04;102989.47;;;13.71;100.00
50356;BME280;36264;51.296;-0.602;2023-02-13T14:33:30;102985.94;;;13.79;100.00
50356;BME280;36264;51.296;-0.602;2023-02-13T14:36:06;102986.69;;;13.93;100.00
50356;BME280;36264;51.296;-0.602;2023-02-13T14:38:33;102983.16;;;13.95;100.00
50356;BME280;36264;51.296;-0.602;2023-02-13T14:40:59;102983.13;;;13.99;100.00
50356;BME280;36264;51.296;-0.602;2023-02-13T14:44:00;102988.28;;;14.08;100.00
50356;BME280;36264;51.296;-0.602;2023-02-13T14:46:33;102984.00;;;14.02;100.00
50356;BME280;36264;51.296;-0.602;2023-02-13T14:49:06;102984.88;;;14.00;100.00
50356;BME280;36264;51.296;-0.602;2023-02-13T14:51:40;102980.56;;;13.94;100.00
50356;BME280;36264;51.296;-0.602;2023-02-13T14:54:24;102977.97;;;13.92;100.00
50356;BME280;36264;51.296;-0.602;2023-02-13T14:56:52;102985.00;;;13.84;100.00
50356;BME280;36264;51.296;-0.602;2023-02-13T14:59:23;102979.88;;;13.75;100.00
50356;BME280;36264;51.296;-0.602;2023-02-13T15:01:56;102984.28;;;13.70;100.00
50356;BME280;36264;51.296;-0.602;2023-02-13T15:04:26;102974.78;;;13.59;100.00
50356;BME280;36264;51.296;-0.602;2023-02-13T15:06:54;102980.91;;;13.55;100.00
50356;BME280;36264;51.296;-0.602;2023-02-13T15:09:37;102974.88;;;13.49;100.00
50356;BME280;36264;51.296;-0.602;2023-02-13T15:12:22;102971.50;;;13.36;100.00
50356;BME280;36264;51.296;-0.602;2023-02-13T15:14:48;102981.94;;;13.27;100.00
50356;BME280;36264;51.296;-0.602;2023-02-13T15:17:39;102971.56;;;13.20;100.00
50356;BME280;36264;51.296;-0.602;2023-02-13T15:20:22;102979.38;;;13.19;100.00
50356;BME280;36264;51.296;-0.602;2023-02-13T15:22:49;102969.03;;;13.03;100.00
50356;BME280;36264;51.296;-0.602;2023-02-13T15:25:33;102969.94;;;12.99;100.00
50356;BME280;36264;51.296;-0.602;2023-02-13T15:28:01;102958.69;;;12.91;100.00
50356;BME280;36264;51.296;-0.602;2023-02-13T15:30:30;102961.34;;;12.83;100.00
50356;BME280;36264;51.296;-0.602;2023-02-13T15:32:58;102963.97;;;12.80;100.00
50356;BME280;36264;51.296;-0.602;2023-02-13T15:35:27;102963.13;;;12.75;100.00